Ansley, Mississippi
Current Conditions -  °F | °C
As of 7:50 PM on Friday 19 Dec 2014 (Local Time) from KHSA Reporting Station
Overcast Overcast  
Wind Chill: 44°   Ceiling: 700
Heat Index: 48°   Visibility: 7mi
Dew Point: 45°   Wind: 9mph
Humidity: 87%   Direction: 50°NE
Pressure: 30.1"   Gusts: NA
Location:  30.2253°N, 89.4838°W
Report Text: KHSA 200150Z 05008KT 7SM BKN007 OVC011 09/07 A3010
Loading
Personal Weather Stations






























Interactive Weather Map New forecast layout! Learn more

10-Day Weather Forecast

Advertisements
Track Severe Weather on mobile